createdAt,value
2022-09-28T00:01:25.433Z,7.27
2022-09-28T00:03:58.188Z,6.70
2022-09-28T00:06:28.845Z,11.73
2022-09-28T00:08:57.358Z,6.83
2022-09-28T00:11:28.114Z,12.50
2022-09-28T00:14:00.112Z,9.00
2022-09-28T00:16:31.876Z,10.53
2022-09-28T00:19:02.066Z,9.03
2022-09-28T00:21:33.644Z,6.90
2022-09-28T00:24:15.238Z,11.00
2022-09-28T00:26:47.995Z,8.53
2022-09-28T00:29:23.867Z,8.60
2022-09-28T00:31:59.724Z,5.47
2022-09-28T00:34:31.956Z,7.80
2022-09-28T00:37:01.338Z,9.90
2022-09-28T00:39:31.605Z,8.87
2022-09-28T00:42:00.734Z,9.30
2022-09-28T00:44:47.394Z,10.20
2022-09-28T00:47:28.067Z,9.00
2022-09-28T00:50:02.837Z,10.40
2022-09-28T00:52:37.059Z,11.70
2022-09-28T00:55:09.320Z,10.33
2022-09-28T00:57:39.063Z,10.67
2022-09-28T01:00:09.184Z,10.40
2022-09-28T01:02:38.006Z,8.20
2022-09-28T01:05:10.979Z,9.33
2022-09-28T01:07:40.074Z,11.17
2022-09-28T01:10:10.020Z,10.10
2022-09-28T01:12:38.471Z,10.97
2022-09-28T01:15:08.367Z,8.83
2022-09-28T01:17:56.790Z,11.50
2022-09-28T01:21:01.407Z,6.47
2022-09-28T01:24:15.200Z,9.73
2022-09-28T01:26:56.959Z,6.70
2022-09-28T01:29:52.925Z,7.47
2022-09-28T01:32:50.575Z,9.03
2022-09-28T01:35:24.794Z,7.27
2022-09-28T01:37:58.398Z,12.20
2022-09-28T01:40:29.967Z,12.77
2022-09-28T01:43:04.498Z,9.00
2022-09-28T01:45:42.195Z,10.90
2022-09-28T01:48:13.249Z,9.17
2022-09-28T01:50:46.527Z,11.17
2022-09-28T01:53:22.522Z,9.17
2022-09-28T01:55:56.623Z,9.27
2022-09-28T01:58:33.503Z,7.03
2022-09-28T02:01:09.970Z,6.13
2022-09-28T02:03:47.951Z,3.80
2022-09-28T02:06:21.812Z,6.63
2022-09-28T02:08:53.998Z,6.33
2022-09-28T02:11:27.397Z,4.43
2022-09-28T02:14:04.890Z,3.00
2022-09-28T02:16:40.373Z,3.13
2022-09-28T02:19:12.764Z,2.03
2022-09-28T02:21:47.654Z,3.00
2022-09-28T02:24:23.998Z,4.20
2022-09-28T02:26:56.684Z,3.77
2022-09-28T02:29:26.986Z,2.40
2022-09-28T02:31:55.354Z,2.43
2022-09-28T02:34:23.689Z,1.30
2022-09-28T02:36:51.940Z,2.73
2022-09-28T02:39:21.649Z,1.70
2022-09-28T02:42:08.604Z,1.23
2022-09-28T02:45:08.967Z,2.47
2022-09-28T02:48:00.778Z,2.43
2022-09-28T02:50:40.699Z,1.97
2022-09-28T02:53:26.059Z,1.67
2022-09-28T02:56:19.771Z,1.83
2022-09-28T02:58:58.194Z,3.30
2022-09-28T03:01:35.421Z,3.00
2022-09-28T03:04:14.680Z,1.47
2022-09-28T03:06:48.400Z,3.10
2022-09-28T03:09:27.627Z,5.20
2022-09-28T03:12:01.989Z,2.53
2022-09-28T03:14:30.566Z,2.53
2022-09-28T03:17:01.109Z,3.53
2022-09-28T03:19:32.423Z,3.80
2022-09-28T03:22:02.042Z,1.83
2022-09-28T03:24:30.583Z,4.13
2022-09-28T03:26:58.978Z,1.53
2022-09-28T03:29:27.417Z,3.00
2022-09-28T03:32:03.304Z,1.20
2022-09-28T03:34:31.572Z,2.30
2022-09-28T03:37:00.088Z,1.37
2022-09-28T03:39:28.698Z,1.97
2022-09-28T03:41:57.187Z,2.30
2022-09-28T03:44:25.531Z,1.10
2022-09-28T03:46:53.912Z,1.10
2022-09-28T03:49:23.645Z,1.60
2022-09-28T03:51:52.152Z,1.20
2022-09-28T03:54:20.488Z,2.60
2022-09-28T03:56:48.759Z,1.10
2022-09-28T03:59:18.479Z,1.93
2022-09-28T04:01:49.689Z,1.30
2022-09-28T04:04:18.379Z,3.27
2022-09-28T04:06:48.548Z,1.03
2022-09-28T04:09:17.311Z,2.40
2022-09-28T04:12:03.430Z,1.07
2022-09-28T04:14:34.077Z,2.30
2022-09-28T04:17:02.380Z,3.23
2022-09-28T04:19:33.060Z,3.40
2022-09-28T04:22:41.255Z,2.23
2022-09-28T04:25:10.668Z,2.00
2022-09-28T04:27:56.526Z,2.70
2022-09-28T04:30:24.903Z,2.60
2022-09-28T04:32:54.141Z,1.10
2022-09-28T04:35:22.554Z,3.33
2022-09-28T04:37:52.522Z,2.43
2022-09-28T04:40:21.239Z,3.00
2022-09-28T04:42:56.066Z,3.53
2022-09-28T04:45:26.215Z,4.03
2022-09-28T04:47:56.597Z,2.20
2022-09-28T04:50:32.447Z,4.40
2022-09-28T04:53:26.603Z,2.40
2022-09-28T04:56:00.582Z,3.37
2022-09-28T04:58:30.146Z,3.30
2022-09-28T05:01:01.645Z,3.10
2022-09-28T05:03:56.532Z,3.90
2022-09-28T05:06:39.529Z,2.63
2022-09-28T05:09:10.557Z,2.93
2022-09-28T05:11:38.911Z,4.50
2022-09-28T05:14:13.172Z,2.87
2022-09-28T05:16:42.136Z,3.60
2022-09-28T05:19:31.362Z,2.83
2022-09-28T05:22:04.785Z,2.10
2022-09-28T05:24:40.625Z,2.10
2022-09-28T05:27:08.962Z,2.53
2022-09-28T05:29:37.310Z,2.33
2022-09-28T05:32:24.113Z,3.27
2022-09-28T05:35:21.853Z,2.00
2022-09-28T05:37:50.687Z,2.40
2022-09-28T05:40:20.504Z,2.83
2022-09-28T05:42:50.164Z,2.37
2022-09-28T05:45:18.562Z,3.43
2022-09-28T05:47:48.335Z,4.13
2022-09-28T05:50:20.151Z,2.90
2022-09-28T05:52:50.537Z,4.70
2022-09-28T05:55:20.374Z,3.07
2022-09-28T05:57:48.963Z,2.90
2022-09-28T06:00:18.881Z,2.80
2022-09-28T06:03:05.392Z,2.90
2022-09-28T06:05:37.118Z,4.27
2022-09-28T06:08:08.239Z,2.93
2022-09-28T06:10:38.508Z,2.93
2022-09-28T06:13:08.218Z,6.00
2022-09-28T06:15:39.058Z,4.27
2022-09-28T06:18:11.328Z,2.50
2022-09-28T06:20:52.844Z,3.87
2022-09-28T06:23:31.427Z,4.80
2022-09-28T06:26:01.965Z,5.60
2022-09-28T06:28:31.839Z,4.30
2022-09-28T06:31:01.988Z,7.00
2022-09-28T06:33:31.917Z,4.60
2022-09-28T06:36:00.925Z,5.10
2022-09-28T06:38:29.213Z,5.40
2022-09-28T06:40:58.908Z,4.57
2022-09-28T06:43:34.121Z,3.17
2022-09-28T06:46:15.131Z,6.23
2022-09-28T06:48:52.894Z,3.23
2022-09-28T06:51:34.830Z,6.03
2022-09-28T06:54:13.237Z,1.97
2022-09-28T06:56:44.185Z,3.50
2022-09-28T06:59:14.120Z,3.80
2022-09-28T07:01:42.681Z,4.50
2022-09-28T07:04:31.922Z,3.93
2022-09-28T07:07:18.653Z,6.80
2022-09-28T07:10:24.077Z,5.70
2022-09-28T07:13:43.110Z,77.60
2022-09-28T07:16:09.812Z,99.00
2022-09-28T07:18:38.139Z,102.20
2022-09-28T07:21:08.615Z,70.60
2022-09-28T07:23:48.932Z,19.17
2022-09-28T07:26:25.672Z,6.57
2022-09-28T07:28:56.974Z,3.90
2022-09-28T07:31:57.562Z,7.03
2022-09-28T07:34:28.696Z,11.10
2022-09-28T07:37:13.393Z,16.93
2022-09-28T07:39:59.578Z,6.40
2022-09-28T07:42:47.349Z,3.90
2022-09-28T07:45:16.050Z,10.23
2022-09-28T07:47:45.860Z,4.20
2022-09-28T07:50:29.935Z,4.47
2022-09-28T07:53:22.544Z,4.80
2022-09-28T07:56:18.281Z,3.47
2022-09-28T07:59:05.058Z,5.37
2022-09-28T08:01:52.093Z,3.73
2022-09-28T08:04:21.882Z,7.00
2022-09-28T08:06:50.369Z,3.53
2022-09-28T08:09:20.514Z,4.77
2022-09-28T08:12:09.141Z,5.67
2022-09-28T08:14:44.129Z,4.47
2022-09-28T08:17:48.582Z,4.90
2022-09-28T08:20:38.444Z,2.97
2022-09-28T08:23:08.422Z,2.53
2022-09-28T08:25:38.283Z,5.20
2022-09-28T08:28:08.239Z,3.40
2022-09-28T08:30:44.296Z,4.20
2022-09-28T08:33:47.938Z,1.93
2022-09-28T08:36:36.082Z,5.27
2022-09-28T08:39:30.378Z,2.33
2022-09-28T08:42:30.144Z,2.77
2022-09-28T08:45:26.977Z,1.60
2022-09-28T08:48:56.289Z,1.90
2022-09-28T08:51:55.392Z,1.80
2022-09-28T08:54:41.795Z,1.30
2022-09-28T08:57:22.991Z,1.57
2022-09-28T08:59:55.773Z,1.50
2022-09-28T09:02:33.650Z,1.37
2022-09-28T09:05:19.168Z,1.27
2022-09-28T09:08:26.788Z,1.30
2022-09-28T09:11:05.507Z,2.23
2022-09-28T09:14:01.304Z,2.27
2022-09-28T09:16:44.161Z,1.33
2022-09-28T09:19:54.490Z,1.73
2022-09-28T09:22:41.752Z,1.50
2022-09-28T09:25:24.544Z,2.23
2022-09-28T09:28:32.136Z,1.37
2022-09-28T09:31:22.567Z,1.87
2022-09-28T09:34:17.935Z,2.13
2022-09-28T09:37:05.891Z,4.13
2022-09-28T09:40:23.241Z,1.10
2022-09-28T09:43:35.362Z,2.57
2022-09-28T09:46:28.753Z,1.17
2022-09-28T09:49:26.033Z,1.50
2022-09-28T09:52:05.114Z,1.20
2022-09-28T09:54:40.605Z,1.50
2022-09-28T09:57:18.701Z,1.93
2022-09-28T09:59:54.076Z,1.90
2022-09-28T10:02:33.707Z,2.03
2022-09-28T10:05:25.522Z,1.10
2022-09-28T10:08:01.600Z,1.63
2022-09-28T10:10:35.077Z,2.17
2022-09-28T10:13:11.315Z,1.77
2022-09-28T10:15:43.400Z,1.63
2022-09-28T10:18:35.890Z,3.53
2022-09-28T10:21:25.359Z,1.00
2022-09-28T10:24:02.786Z,1.53
2022-09-28T10:26:36.795Z,3.83
2022-09-28T10:29:15.819Z,1.87
2022-09-28T10:31:48.989Z,1.63
2022-09-28T10:34:29.529Z,1.90
2022-09-28T10:37:05.468Z,3.73
2022-09-28T10:39:56.593Z,2.10
2022-09-28T10:42:30.975Z,2.40
2022-09-28T10:45:08.301Z,2.70
2022-09-28T10:47:38.467Z,1.10
2022-09-28T10:50:22.151Z,1.67
2022-09-28T10:52:53.209Z,2.47
2022-09-28T10:55:41.439Z,2.30
2022-09-28T10:58:28.032Z,2.23
2022-09-28T11:01:08.232Z,2.00
2022-09-28T11:03:52.971Z,0.90
2022-09-28T11:06:28.097Z,1.00
2022-09-28T11:09:00.023Z,1.00
2022-09-28T11:11:31.482Z,2.23
2022-09-28T11:14:06.571Z,1.40
2022-09-28T11:16:39.013Z,1.43
2022-09-28T11:19:29.444Z,2.00
2022-09-28T11:21:57.742Z,2.37
2022-09-28T11:24:38.105Z,2.10
2022-09-28T11:27:06.946Z,1.20
2022-09-28T11:29:39.948Z,1.90
2022-09-28T11:32:43.914Z,1.87
2022-09-28T11:35:46.980Z,2.70
2022-09-28T11:38:41.253Z,0.90
2022-09-28T11:41:50.896Z,1.70
2022-09-28T11:44:40.115Z,1.77
2022-09-28T11:47:51.218Z,1.57
2022-09-28T11:50:31.936Z,1.10
2022-09-28T11:53:14.733Z,1.10
2022-09-28T11:55:52.183Z,1.50
2022-09-28T11:58:28.871Z,1.20
2022-09-28T12:01:05.940Z,2.00
2022-09-28T12:04:03.155Z,2.83
2022-09-28T12:06:42.156Z,2.60
2022-09-28T12:09:18.195Z,1.73
2022-09-28T12:12:14.154Z,2.93
2022-09-28T12:14:48.516Z,1.30
2022-09-28T12:17:26.196Z,0.97
2022-09-28T12:20:04.983Z,1.83
2022-09-28T12:22:39.192Z,1.47
2022-09-28T12:25:15.672Z,1.40
2022-09-28T12:27:54.957Z,2.67
2022-09-28T12:30:25.740Z,1.10
2022-09-28T12:33:02.782Z,1.80
2022-09-28T12:35:41.841Z,2.23
2022-09-28T12:39:08.441Z,4.03
2022-09-28T12:41:52.496Z,2.80
2022-09-28T12:44:39.124Z,1.67
2022-09-28T12:47:40.312Z,1.00
2022-09-28T12:50:39.527Z,1.20
2022-09-28T12:53:38.828Z,1.53
2022-09-28T12:56:21.557Z,1.20
2022-09-28T12:59:06.015Z,1.20
2022-09-28T13:02:22.736Z,1.30
2022-09-28T13:05:25.678Z,1.23
2022-09-28T13:08:05.308Z,2.00
2022-09-28T13:10:43.079Z,1.83
2022-09-28T13:13:34.784Z,1.20
2022-09-28T13:16:12.790Z,1.20
2022-09-28T13:18:52.215Z,1.60
2022-09-28T13:21:33.037Z,1.53
2022-09-28T13:24:27.751Z,1.10
2022-09-28T13:26:58.232Z,1.00
2022-09-28T13:29:27.952Z,1.50
2022-09-28T13:32:02.006Z,1.67
2022-09-28T13:34:35.310Z,2.33
2022-09-28T13:37:22.005Z,1.17
2022-09-28T13:39:53.188Z,1.80
2022-09-28T13:43:05.348Z,0.97
2022-09-28T13:45:56.752Z,3.10
2022-09-28T13:48:42.532Z,1.33
2022-09-28T13:51:27.293Z,1.43
2022-09-28T13:54:17.223Z,1.20
2022-09-28T13:56:55.288Z,1.00
2022-09-28T13:59:28.457Z,1.67
2022-09-28T14:02:07.071Z,1.10
2022-09-28T14:04:58.957Z,1.70
2022-09-28T14:07:47.888Z,1.50
2022-09-28T14:10:22.259Z,1.00
2022-09-28T14:12:51.577Z,0.90
2022-09-28T14:15:49.749Z,0.97
2022-09-28T14:18:30.458Z,1.40
2022-09-28T14:21:29.387Z,0.90
2022-09-28T14:24:23.186Z,1.50
2022-09-28T14:27:14.047Z,0.93
2022-09-28T14:29:42.649Z,0.90
2022-09-28T14:32:36.142Z,0.90
2022-09-28T14:35:07.538Z,0.80
2022-09-28T14:37:56.805Z,1.00
2022-09-28T14:40:49.717Z,1.07
2022-09-28T14:43:28.257Z,2.10
2022-09-28T14:46:33.242Z,1.20
2022-09-28T14:49:07.907Z,0.90
2022-09-28T14:52:04.735Z,1.00
2022-09-28T14:54:54.387Z,1.00
2022-09-28T14:57:30.238Z,1.00
2022-09-28T15:00:00.688Z,1.40
2022-09-28T15:02:38.441Z,0.90
2022-09-28T15:05:25.529Z,3.13
2022-09-28T15:07:56.268Z,1.27
2022-09-28T15:10:32.271Z,1.40
2022-09-28T15:13:04.034Z,1.00
2022-09-28T15:15:38.251Z,1.20
2022-09-28T15:18:58.845Z,1.00
2022-09-28T15:21:36.709Z,0.80
2022-09-28T15:24:27.195Z,1.80
2022-09-28T15:26:56.786Z,6.60
2022-09-28T15:29:31.014Z,1.53
2022-09-28T15:31:59.702Z,1.20
2022-09-28T15:34:48.529Z,0.80
2022-09-28T15:37:22.567Z,1.93
2022-09-28T15:39:53.302Z,1.10
2022-09-28T15:42:22.863Z,1.00
2022-09-28T15:45:24.869Z,1.00
2022-09-28T15:48:18.213Z,0.90
2022-09-28T15:51:05.120Z,1.00
2022-09-28T15:53:35.248Z,1.10
2022-09-28T15:56:10.227Z,0.90
2022-09-28T15:58:39.396Z,0.90
2022-09-28T16:01:37.037Z,1.00
2022-09-28T16:04:44.295Z,1.00
2022-09-28T16:07:25.572Z,2.70
2022-09-28T16:10:31.266Z,1.00
2022-09-28T16:13:15.814Z,0.90
2022-09-28T16:15:44.745Z,3.83
2022-09-28T16:18:23.518Z,1.00
2022-09-28T16:20:54.015Z,1.40
2022-09-28T16:23:27.958Z,1.00
2022-09-28T16:26:02.708Z,1.30
2022-09-28T16:28:52.064Z,1.23
2022-09-28T16:31:34.466Z,1.83
2022-09-28T16:34:20.087Z,1.00
2022-09-28T16:36:50.649Z,1.00
2022-09-28T16:39:20.619Z,1.40
2022-09-28T16:41:56.904Z,1.03
2022-09-28T16:44:28.641Z,0.97
2022-09-28T16:47:00.675Z,1.33
2022-09-28T16:49:32.171Z,2.53
2022-09-28T16:52:01.917Z,2.30
2022-09-28T16:54:48.266Z,1.27
2022-09-28T16:57:18.089Z,1.80
2022-09-28T16:59:46.359Z,1.30
2022-09-28T17:02:45.090Z,1.93
2022-09-28T17:05:11.148Z,1.30
2022-09-28T17:07:39.914Z,2.17
2022-09-28T17:10:19.367Z,2.80
2022-09-28T17:12:49.069Z,1.20
2022-09-28T17:15:19.672Z,1.40
2022-09-28T17:17:49.428Z,2.97
2022-09-28T17:20:22.848Z,2.80
2022-09-28T17:22:52.128Z,1.30
2022-09-28T17:25:21.415Z,2.77
2022-09-28T17:27:51.854Z,1.50
2022-09-28T17:30:23.606Z,3.27
2022-09-28T17:32:55.235Z,1.40
2022-09-28T17:35:24.981Z,2.20
2022-09-28T17:37:54.006Z,2.50
2022-09-28T17:40:24.676Z,2.03
2022-09-28T17:42:57.836Z,1.50
2022-09-28T17:45:31.322Z,1.73
2022-09-28T17:48:00.681Z,12.70
2022-09-28T17:50:32.404Z,4.50
2022-09-28T17:53:06.038Z,2.70
2022-09-28T17:55:36.685Z,5.17
2022-09-28T17:58:17.878Z,2.53
2022-09-28T18:00:48.348Z,3.87
2022-09-28T18:03:18.829Z,2.90
2022-09-28T18:05:49.837Z,2.30
2022-09-28T18:08:21.593Z,8.70
2022-09-28T18:10:52.278Z,7.33
2022-09-28T18:13:22.113Z,2.77
2022-09-28T18:15:52.818Z,4.70
2022-09-28T18:18:22.001Z,3.33
2022-09-28T18:20:53.162Z,2.70
2022-09-28T18:23:21.585Z,3.07
2022-09-28T18:25:49.985Z,3.53
2022-09-28T18:28:18.347Z,6.60
2022-09-28T18:30:48.129Z,15.40
2022-09-28T18:33:16.613Z,7.67
2022-09-28T18:35:53.568Z,3.50
2022-09-28T18:38:22.271Z,3.83
2022-09-28T18:40:50.876Z,3.27
2022-09-28T18:43:19.320Z,4.47
2022-09-28T18:45:49.641Z,6.90
2022-09-28T18:48:18.039Z,16.80
2022-09-28T18:50:46.423Z,7.43
2022-09-28T18:53:15.108Z,4.70
2022-09-28T18:55:44.712Z,3.67
2022-09-28T18:58:13.686Z,3.90
2022-09-28T19:00:43.453Z,4.03
2022-09-28T19:03:14.418Z,2.93
2022-09-28T19:05:43.953Z,5.27
2022-09-28T19:08:12.391Z,3.40
2022-09-28T19:10:40.812Z,3.57
2022-09-28T19:13:09.521Z,4.50
2022-09-28T19:15:38.694Z,4.60
2022-09-28T19:18:07.248Z,11.07
2022-09-28T19:20:37.023Z,8.73
2022-09-28T19:23:05.826Z,5.30
2022-09-28T19:25:35.403Z,4.97
2022-09-28T19:28:03.939Z,5.80
2022-09-28T19:30:32.277Z,4.23
2022-09-28T19:33:00.845Z,5.70
2022-09-28T19:35:29.461Z,7.70
2022-09-28T19:37:59.357Z,4.40
2022-09-28T19:40:27.700Z,5.03
2022-09-28T19:42:56.088Z,4.30
2022-09-28T19:45:24.564Z,6.50
2022-09-28T19:47:57.312Z,5.70
2022-09-28T19:50:27.641Z,5.47
2022-09-28T19:52:57.155Z,7.07
2022-09-28T19:55:35.235Z,8.93
2022-09-28T19:58:05.004Z,16.47
2022-09-28T20:00:33.320Z,13.60
2022-09-28T20:03:01.673Z,10.43
2022-09-28T20:05:30.071Z,10.40
2022-09-28T20:07:58.559Z,7.77
2022-09-28T20:10:30.170Z,10.03
2022-09-28T20:12:58.982Z,5.63
2022-09-28T20:15:28.231Z,9.57
2022-09-28T20:17:58.737Z,7.30
2022-09-28T20:20:28.010Z,4.77
2022-09-28T20:22:56.391Z,5.20
2022-09-28T20:25:25.591Z,3.47
2022-09-28T20:27:55.781Z,4.53
2022-09-28T20:30:24.280Z,4.07
2022-09-28T20:32:52.757Z,7.33
2022-09-28T20:35:32.315Z,4.67
2022-09-28T20:38:08.114Z,3.97
2022-09-28T20:40:36.628Z,4.33
2022-09-28T20:43:08.283Z,6.40
2022-09-28T20:45:38.137Z,7.90
2022-09-28T20:48:06.904Z,7.57
2022-09-28T20:50:35.724Z,9.37
2022-09-28T20:53:04.028Z,8.37
2022-09-28T20:55:32.356Z,7.30
2022-09-28T20:58:04.539Z,7.03
2022-09-28T21:00:34.381Z,7.20
2022-09-28T21:03:02.825Z,7.00
2022-09-28T21:05:31.207Z,17.97
2022-09-28T21:08:00.024Z,26.40
2022-09-28T21:10:30.281Z,12.27
2022-09-28T21:12:58.741Z,6.30
2022-09-28T21:15:29.551Z,12.43
2022-09-28T21:17:59.491Z,12.37
2022-09-28T21:20:27.913Z,9.67
2022-09-28T21:22:56.233Z,6.77
2022-09-28T21:25:24.691Z,11.73
2022-09-28T21:27:53.975Z,6.40
2022-09-28T21:30:22.236Z,7.37
2022-09-28T21:32:52.161Z,6.07
2022-09-28T21:35:21.827Z,9.43
2022-09-28T21:37:50.943Z,5.73
2022-09-28T21:40:19.985Z,7.23
2022-09-28T21:42:48.331Z,6.07
2022-09-28T21:45:17.367Z,7.13
2022-09-28T21:47:52.653Z,6.10
2022-09-28T21:50:25.108Z,6.37
2022-09-28T21:52:55.093Z,7.33
2022-09-28T21:55:24.922Z,7.57
2022-09-28T21:57:53.276Z,7.03
2022-09-28T22:00:24.330Z,6.47
2022-09-28T22:02:53.101Z,7.70
2022-09-28T22:05:22.892Z,5.83
2022-09-28T22:07:51.203Z,9.03
2022-09-28T22:10:19.667Z,8.27
2022-09-28T22:12:47.940Z,11.13
2022-09-28T22:15:16.463Z,7.83
2022-09-28T22:17:45.021Z,10.40
2022-09-28T22:20:13.344Z,12.03
2022-09-28T22:22:43.054Z,11.70
2022-09-28T22:25:11.506Z,10.00
2022-09-28T22:27:40.126Z,8.67
2022-09-28T22:30:09.958Z,8.77
2022-09-28T22:32:38.245Z,7.80
2022-09-28T22:35:08.361Z,7.50
2022-09-28T22:37:36.618Z,8.30
2022-09-28T22:40:07.777Z,9.80
2022-09-28T22:42:36.191Z,8.00
2022-09-28T22:45:05.191Z,7.23
2022-09-28T22:47:33.654Z,11.67
2022-09-28T22:50:01.985Z,11.07
2022-09-28T22:52:30.401Z,9.93
2022-09-28T22:54:58.916Z,10.23
2022-09-28T22:57:28.853Z,8.00
2022-09-28T22:59:57.206Z,8.80
2022-09-28T23:02:25.718Z,10.60
2022-09-28T23:04:54.075Z,9.80
2022-09-28T23:07:22.442Z,10.30
2022-09-28T23:09:53.297Z,14.53
2022-09-28T23:12:21.750Z,15.00
2022-09-28T23:14:52.274Z,10.50
2022-09-28T23:17:20.902Z,13.07
2022-09-28T23:19:49.425Z,11.03
2022-09-28T23:22:17.833Z,14.37
2022-09-28T23:24:46.363Z,14.13
2022-09-28T23:27:14.633Z,14.83
2022-09-28T23:29:46.850Z,15.47
2022-09-28T23:32:17.553Z,12.20
2022-09-28T23:34:45.990Z,10.50
2022-09-28T23:37:14.380Z,11.13
2022-09-28T23:39:43.675Z,14.27
2022-09-28T23:42:12.418Z,9.00
2022-09-28T23:44:40.842Z,10.67
2022-09-28T23:47:09.218Z,9.83
2022-09-28T23:49:39.334Z,9.23
2022-09-28T23:52:07.823Z,8.67
2022-09-28T23:54:36.289Z,11.73
2022-09-28T23:57:04.973Z,10.90
2022-09-28T23:59:33.501Z,10.67
